createdAt,value
2019-03-27T00:01:48.856Z,100681.08
2019-03-27T00:04:21.520Z,100686.23
2019-03-27T00:06:54.336Z,100687.05
2019-03-27T00:09:27.201Z,100687.91
2019-03-27T00:12:00.199Z,100698.63
2019-03-27T00:14:32.806Z,100697.30
2019-03-27T00:17:06.100Z,100699.00
2019-03-27T00:19:38.856Z,100701.99
2019-03-27T00:22:11.626Z,100707.13
2019-03-27T00:24:44.656Z,100716.16
2019-03-27T00:27:17.851Z,100708.84
2019-03-27T00:29:50.958Z,100717.42
2019-03-27T00:32:23.759Z,100724.72
2019-03-27T00:34:56.587Z,100720.88
2019-03-27T00:37:29.409Z,100718.33
2019-03-27T00:40:01.952Z,100723.91
2019-03-27T00:42:34.626Z,100735.48
2019-03-27T00:45:08.746Z,100738.89
2019-03-27T00:47:41.376Z,100742.75
2019-03-27T00:50:14.916Z,100740.53
2019-03-27T00:52:47.685Z,100747.38
2019-03-27T00:55:20.786Z,100743.52
2019-03-27T00:57:53.456Z,100743.94
2019-03-27T01:00:29.616Z,100751.19
2019-03-27T01:03:02.226Z,100758.53
2019-03-27T01:05:34.977Z,100757.22
2019-03-27T01:08:07.893Z,100766.66
2019-03-27T01:10:40.680Z,100766.19
2019-03-27T01:13:13.326Z,100766.20
2019-03-27T01:15:45.836Z,100768.30
2019-03-27T01:18:18.576Z,100768.77
2019-03-27T01:20:52.365Z,100770.06
2019-03-27T01:23:25.156Z,100770.45
2019-03-27T01:25:57.846Z,100775.55
2019-03-27T01:28:30.746Z,100771.25
2019-03-27T01:31:03.479Z,100781.08
2019-03-27T01:33:36.276Z,100775.92
2019-03-27T01:36:08.965Z,100779.35
2019-03-27T01:38:41.666Z,100783.22
2019-03-27T01:41:14.536Z,100781.08
2019-03-27T01:43:47.096Z,100780.64
2019-03-27T01:46:19.847Z,100791.36
2019-03-27T01:48:52.724Z,100798.61
2019-03-27T01:51:25.516Z,100800.31
2019-03-27T01:53:58.066Z,100799.00
2019-03-27T01:56:30.874Z,100812.75
2019-03-27T01:59:03.846Z,100813.59
2019-03-27T02:01:36.415Z,100820.86
2019-03-27T02:04:09.206Z,100818.73
2019-03-27T02:06:42.056Z,100823.00
2019-03-27T02:09:14.726Z,100838.03
2019-03-27T02:11:47.325Z,100839.33
2019-03-27T02:14:19.805Z,100843.59
2019-03-27T02:16:52.586Z,100848.72
2019-03-27T02:19:25.427Z,100852.58
2019-03-27T02:21:58.676Z,100849.16
2019-03-27T02:24:31.615Z,100859.84
2019-03-27T02:27:05.366Z,100859.81
2019-03-27T02:29:37.971Z,100864.09
2019-03-27T02:32:10.862Z,100869.64
2019-03-27T02:34:43.687Z,100868.77
2019-03-27T02:37:16.286Z,100872.61
2019-03-27T02:39:49.415Z,100880.36
2019-03-27T02:42:22.080Z,100879.06
2019-03-27T02:44:54.936Z,100884.19
2019-03-27T02:47:28.140Z,100885.89
2019-03-27T02:50:01.112Z,100881.13
2019-03-27T02:52:34.854Z,100879.84
2019-03-27T02:55:07.637Z,100875.98
2019-03-27T02:57:40.357Z,100885.89
2019-03-27T03:00:13.641Z,100888.46
2019-03-27T03:02:46.617Z,100893.98
2019-03-27T03:05:19.436Z,100893.52
2019-03-27T03:07:52.186Z,100896.92
2019-03-27T03:10:25.090Z,100901.22
2019-03-27T03:12:57.577Z,100908.47
2019-03-27T03:15:30.309Z,100906.34
2019-03-27T03:18:03.891Z,100910.17
2019-03-27T03:20:36.744Z,100921.31
2019-03-27T03:23:09.609Z,100927.75
2019-03-27T03:25:42.368Z,100929.03
2019-03-27T03:28:14.925Z,100932.42
2019-03-27T03:30:47.881Z,100935.84
2019-03-27T03:33:20.838Z,100933.69
2019-03-27T03:35:53.650Z,100938.33
2019-03-27T03:38:26.519Z,100951.13
2019-03-27T03:40:59.426Z,100955.84
2019-03-27T03:43:32.108Z,100960.92
2019-03-27T03:46:05.137Z,100966.54
2019-03-27T03:48:38.306Z,100972.97
2019-03-27T03:51:11.577Z,100977.64
2019-03-27T03:53:44.746Z,100973.78
2019-03-27T03:56:17.707Z,100981.06
2019-03-27T03:58:50.617Z,100987.47
2019-03-27T04:01:25.646Z,100991.33
2019-03-27T04:03:59.231Z,100979.59
2019-03-27T04:06:32.093Z,101004.56
2019-03-27T04:09:05.276Z,101009.70
2019-03-27T04:11:38.016Z,101008.86
2019-03-27T04:14:10.738Z,101008.42
2019-03-27T04:16:44.498Z,101015.70
2019-03-27T04:19:17.088Z,101016.98
2019-03-27T04:21:51.297Z,101025.55
2019-03-27T04:24:24.012Z,101021.22
2019-03-27T04:26:56.712Z,101033.70
2019-03-27T04:29:29.307Z,101038.41
2019-03-27T04:32:02.471Z,101043.92
2019-03-27T04:34:35.199Z,101048.22
2019-03-27T04:37:09.040Z,101056.41
2019-03-27T04:39:41.856Z,101052.55
2019-03-27T04:42:14.796Z,101049.07
2019-03-27T04:44:48.186Z,101050.33
2019-03-27T04:47:32.031Z,101052.89
2019-03-27T04:49:55.325Z,101054.48
2019-03-27T04:52:28.289Z,101054.08
2019-03-27T04:55:00.878Z,101061.83
2019-03-27T04:57:33.578Z,101062.30
2019-03-27T05:00:07.946Z,101069.24
2019-03-27T05:02:40.685Z,101071.00
2019-03-27T05:05:13.547Z,101083.09
2019-03-27T05:07:46.459Z,101082.31
2019-03-27T05:10:21.326Z,101085.84
2019-03-27T05:12:54.136Z,101090.64
2019-03-27T05:15:27.076Z,101087.33
2019-03-27T05:17:59.786Z,101092.61
2019-03-27T05:20:32.576Z,101094.84
2019-03-27T05:23:05.655Z,101103.95
2019-03-27T05:25:38.273Z,101107.91
2019-03-27T05:28:11.318Z,101115.73
2019-03-27T05:30:44.036Z,101117.93
2019-03-27T05:33:16.915Z,101122.73
2019-03-27T05:35:49.736Z,101119.38
2019-03-27T05:38:22.516Z,101119.06
2019-03-27T05:40:55.284Z,101120.41
2019-03-27T05:43:28.036Z,101123.95
2019-03-27T05:46:00.787Z,101136.11
2019-03-27T05:48:33.409Z,101129.29
2019-03-27T05:51:06.076Z,101133.72
2019-03-27T05:53:38.805Z,101132.95
2019-03-27T05:56:11.867Z,101134.38
2019-03-27T05:58:44.927Z,101138.39
2019-03-27T06:01:17.556Z,101139.43
2019-03-27T06:03:50.476Z,101137.89
2019-03-27T06:06:23.321Z,101135.91
2019-03-27T06:08:55.986Z,101133.48
2019-03-27T06:11:28.836Z,101131.48
2019-03-27T06:14:01.648Z,101141.17
2019-03-27T06:16:34.565Z,101149.48
2019-03-27T06:19:07.334Z,101155.25
2019-03-27T06:21:40.096Z,101143.30
2019-03-27T06:24:12.994Z,101151.27
2019-03-27T06:26:45.713Z,101156.08
2019-03-27T06:29:18.636Z,101160.50
2019-03-27T06:31:51.114Z,101167.52
2019-03-27T06:34:24.215Z,101172.38
2019-03-27T06:36:57.047Z,101175.06
2019-03-27T06:39:29.764Z,101178.60
2019-03-27T06:42:03.059Z,101183.02
2019-03-27T06:44:36.026Z,101190.45
2019-03-27T06:47:08.806Z,101187.52
2019-03-27T06:49:41.806Z,101184.94
2019-03-27T06:52:14.771Z,101185.90
2019-03-27T06:54:47.546Z,101190.27
2019-03-27T06:57:21.006Z,101189.95
2019-03-27T06:59:53.607Z,101195.20
2019-03-27T07:02:28.911Z,101203.02
2019-03-27T07:05:00.956Z,101199.59
2019-03-27T07:07:33.635Z,101199.64
2019-03-27T07:10:06.986Z,101203.56
2019-03-27T07:12:39.635Z,101201.44
2019-03-27T07:15:12.419Z,101201.85
2019-03-27T07:17:45.060Z,101194.53
2019-03-27T07:20:17.509Z,101198.41
2019-03-27T07:22:50.106Z,101191.50
2019-03-27T07:25:22.795Z,101197.95
2019-03-27T07:27:55.647Z,101200.02
2019-03-27T07:30:28.266Z,101203.83
2019-03-27T07:33:01.056Z,101205.00
2019-03-27T07:35:33.736Z,101200.58
2019-03-27T07:38:08.876Z,101197.51
2019-03-27T07:40:41.375Z,101200.13
2019-03-27T07:43:14.146Z,101200.21
2019-03-27T07:45:46.956Z,101203.66
2019-03-27T07:48:20.816Z,101199.93
2019-03-27T07:50:53.766Z,101197.62
2019-03-27T07:53:26.467Z,101199.45
2019-03-27T07:55:59.860Z,101198.97
2019-03-27T07:58:32.926Z,101208.90
2019-03-27T08:01:05.816Z,101209.69
2019-03-27T08:03:38.378Z,101211.75
2019-03-27T08:06:11.996Z,101214.82
2019-03-27T08:08:44.899Z,101220.28
2019-03-27T08:11:17.630Z,101226.16
2019-03-27T08:13:50.355Z,101230.06
2019-03-27T08:16:25.093Z,101227.54
2019-03-27T08:19:07.371Z,101232.55
2019-03-27T08:21:32.307Z,101231.39
2019-03-27T08:24:05.932Z,101235.67
2019-03-27T08:26:38.593Z,101234.98
2019-03-27T08:29:11.093Z,101246.11
2019-03-27T08:31:43.644Z,101254.15
2019-03-27T08:34:16.471Z,101250.41
2019-03-27T08:36:51.352Z,101244.44
2019-03-27T08:39:23.655Z,101244.81
2019-03-27T08:41:56.333Z,101248.44
2019-03-27T08:44:28.973Z,101242.50
2019-03-27T08:47:01.664Z,101232.00
2019-03-27T08:49:34.218Z,101236.38
2019-03-27T08:52:07.162Z,101236.27
2019-03-27T08:54:40.171Z,101239.36
2019-03-27T08:57:12.772Z,101242.90
2019-03-27T08:59:45.381Z,101242.04
2019-03-27T09:02:18.070Z,101240.23
2019-03-27T09:04:50.633Z,101240.66
2019-03-27T09:07:23.263Z,101251.91
2019-03-27T09:09:55.963Z,101237.06
2019-03-27T09:12:28.513Z,101240.84
2019-03-27T09:15:00.973Z,101237.71
2019-03-27T09:17:33.684Z,101242.05
2019-03-27T09:20:07.383Z,101241.67
2019-03-27T09:22:40.195Z,101246.36
2019-03-27T09:25:12.841Z,101245.25
2019-03-27T09:27:45.613Z,101248.23
2019-03-27T09:30:18.883Z,101241.37
2019-03-27T09:32:51.483Z,101258.23
2019-03-27T09:35:23.973Z,101250.04
2019-03-27T09:37:56.564Z,101257.66
2019-03-27T09:40:29.054Z,101251.17
2019-03-27T09:43:01.676Z,101252.54
2019-03-27T09:45:34.163Z,101252.42
2019-03-27T09:48:06.778Z,101248.27
2019-03-27T09:50:39.341Z,101248.59
2019-03-27T09:53:11.833Z,101244.28
2019-03-27T09:55:44.486Z,101244.11
2019-03-27T09:58:17.286Z,101243.17
2019-03-27T10:01:06.881Z,101237.86
2019-03-27T10:03:39.643Z,101244.22
2019-03-27T10:06:12.343Z,101244.75
2019-03-27T10:08:44.874Z,101242.58
2019-03-27T10:11:17.613Z,101237.30
2019-03-27T10:13:50.303Z,101251.34
2019-03-27T10:16:22.993Z,101252.38
2019-03-27T10:18:55.653Z,101244.13
2019-03-27T10:21:28.193Z,101246.76
2019-03-27T10:24:00.883Z,101242.71
2019-03-27T10:26:33.904Z,101250.61
2019-03-27T10:29:09.671Z,101240.36
2019-03-27T10:31:42.361Z,101246.67
2019-03-27T10:34:14.883Z,101245.97
2019-03-27T10:36:47.503Z,101243.42
2019-03-27T10:39:20.193Z,101237.25
2019-03-27T10:41:52.922Z,101237.77
2019-03-27T10:44:25.558Z,101241.20
2019-03-27T10:46:58.074Z,101234.78
2019-03-27T10:49:34.156Z,101236.43
2019-03-27T10:52:05.433Z,101242.83
2019-03-27T10:54:38.066Z,101233.06
2019-03-27T10:57:10.755Z,101227.97
2019-03-27T10:59:43.322Z,101236.55
2019-03-27T11:02:15.814Z,101229.97
2019-03-27T11:04:48.452Z,101235.14
2019-03-27T11:07:21.204Z,101234.05
2019-03-27T11:09:53.714Z,101225.80
2019-03-27T11:12:26.214Z,101222.86
2019-03-27T11:14:58.913Z,101225.31
2019-03-27T11:17:31.293Z,101227.38
2019-03-27T11:20:03.973Z,101226.63
2019-03-27T11:22:36.511Z,101228.80
2019-03-27T11:25:09.293Z,101232.38
2019-03-27T11:27:41.844Z,101232.73
2019-03-27T11:30:14.784Z,101228.78
2019-03-27T11:32:47.933Z,101225.41
2019-03-27T11:35:20.636Z,101225.37
2019-03-27T11:37:53.403Z,101217.29
2019-03-27T11:40:26.123Z,101220.09
2019-03-27T11:42:58.913Z,101219.55
2019-03-27T11:45:31.513Z,101222.03
2019-03-27T11:48:08.049Z,101224.63
2019-03-27T11:50:45.089Z,101225.55
2019-03-27T11:53:13.663Z,101223.20
2019-03-27T11:55:46.372Z,101223.36
2019-03-27T11:58:19.173Z,101216.63
2019-03-27T12:00:54.776Z,101222.33
2019-03-27T12:03:26.093Z,101216.53
2019-03-27T12:05:58.863Z,101209.33
2019-03-27T12:08:31.453Z,101217.53
2019-03-27T12:11:04.175Z,101214.67
2019-03-27T12:13:36.651Z,101215.74
2019-03-27T12:16:09.591Z,101211.03
2019-03-27T12:18:42.093Z,101213.08
2019-03-27T12:21:15.356Z,101209.00
2019-03-27T12:23:47.853Z,101208.41
2019-03-27T12:26:20.473Z,101210.52
2019-03-27T12:28:53.084Z,101213.04
2019-03-27T12:31:25.933Z,101206.77
2019-03-27T12:33:58.675Z,101200.38
2019-03-27T12:36:31.353Z,101202.28
2019-03-27T12:39:05.573Z,101191.26
2019-03-27T12:41:38.243Z,101177.02
2019-03-27T12:44:10.723Z,101173.28
2019-03-27T12:46:43.663Z,101175.72
2019-03-27T12:49:16.134Z,101166.72
2019-03-27T12:51:48.824Z,101173.91
2019-03-27T12:54:21.527Z,101171.23
2019-03-27T12:56:54.173Z,101174.02
2019-03-27T12:59:26.682Z,101166.78
2019-03-27T13:01:59.543Z,101173.78
2019-03-27T13:04:32.135Z,101174.10
2019-03-27T13:07:04.707Z,101163.66
2019-03-27T13:09:37.353Z,101170.06
2019-03-27T13:12:10.213Z,101164.47
2019-03-27T13:14:42.973Z,101162.77
2019-03-27T13:17:15.703Z,101155.86
2019-03-27T13:19:48.443Z,101153.09
2019-03-27T13:22:22.289Z,101162.27
2019-03-27T13:24:54.872Z,101156.07
2019-03-27T13:27:27.553Z,101151.99
2019-03-27T13:30:02.893Z,101154.92
2019-03-27T13:32:35.654Z,101157.05
2019-03-27T13:35:09.253Z,101158.25
2019-03-27T13:37:42.081Z,101156.37
2019-03-27T13:40:15.136Z,101150.68
2019-03-27T13:42:47.813Z,101152.59
2019-03-27T13:45:21.118Z,101151.61
2019-03-27T13:47:53.895Z,101151.22
2019-03-27T13:50:26.633Z,101161.02
2019-03-27T13:52:59.133Z,101161.09
2019-03-27T13:55:35.176Z,101154.19
2019-03-27T13:58:06.994Z,101159.97
2019-03-27T14:00:39.734Z,101148.53
2019-03-27T14:03:12.387Z,101158.39
2019-03-27T14:05:45.033Z,101146.37
2019-03-27T14:08:21.216Z,101161.82
2019-03-27T14:10:53.903Z,101152.52
2019-03-27T14:13:26.821Z,101146.78
2019-03-27T14:15:59.680Z,101147.86
2019-03-27T14:18:32.524Z,101152.56
2019-03-27T14:21:05.338Z,101145.69
2019-03-27T14:23:37.824Z,101145.36
2019-03-27T14:26:10.874Z,101141.41
2019-03-27T14:28:44.083Z,101142.29
2019-03-27T14:31:16.874Z,101141.39
2019-03-27T14:33:49.653Z,101136.84
2019-03-27T14:36:23.193Z,101138.73
2019-03-27T14:38:55.804Z,101122.05
2019-03-27T14:41:28.533Z,101125.97
2019-03-27T14:44:01.365Z,101123.13
2019-03-27T14:46:33.997Z,101119.62
2019-03-27T14:49:07.211Z,101132.64
2019-03-27T14:51:39.963Z,101135.57
2019-03-27T14:54:12.905Z,101124.23
2019-03-27T14:56:45.395Z,101134.95
2019-03-27T14:59:18.082Z,101134.28
2019-03-27T15:01:50.963Z,101130.42
2019-03-27T15:04:23.682Z,101127.48
2019-03-27T15:06:56.534Z,101131.45
2019-03-27T15:09:29.521Z,101132.95
2019-03-27T15:12:02.304Z,101124.78
2019-03-27T15:14:35.103Z,101121.36
2019-03-27T15:17:07.973Z,101121.87
2019-03-27T15:19:40.808Z,101122.03
2019-03-27T15:22:22.268Z,101119.41
2019-03-27T15:24:48.253Z,101113.91
2019-03-27T15:27:20.874Z,101120.91
2019-03-27T15:29:54.101Z,101119.81
2019-03-27T15:32:28.423Z,101119.22
2019-03-27T15:35:01.357Z,101125.09
2019-03-27T15:37:36.673Z,101127.27
2019-03-27T15:40:09.723Z,101127.34
2019-03-27T15:42:42.893Z,101127.34
2019-03-27T15:45:15.597Z,101127.81
2019-03-27T15:47:48.234Z,101130.56
2019-03-27T15:50:20.672Z,101130.80
2019-03-27T15:52:53.515Z,101134.23
2019-03-27T15:55:26.083Z,101134.33
2019-03-27T15:57:58.813Z,101140.30
2019-03-27T16:00:34.989Z,101133.66
2019-03-27T16:03:07.613Z,101129.80
2019-03-27T16:05:40.301Z,101127.73
2019-03-27T16:08:12.983Z,101126.52
2019-03-27T16:10:46.263Z,101127.95
2019-03-27T16:13:19.064Z,101130.73
2019-03-27T16:15:52.136Z,101135.73
2019-03-27T16:18:25.293Z,101142.20
2019-03-27T16:20:58.244Z,101135.45
2019-03-27T16:23:32.470Z,101135.30
2019-03-27T16:26:05.335Z,101135.56
2019-03-27T16:28:37.993Z,101131.55
2019-03-27T16:31:11.083Z,101138.32
2019-03-27T16:33:44.783Z,101138.91
2019-03-27T16:36:17.443Z,101136.83
2019-03-27T16:38:50.113Z,101136.55
2019-03-27T16:41:22.993Z,101140.11
2019-03-27T16:43:55.863Z,101139.91
2019-03-27T16:46:28.793Z,101143.58
2019-03-27T16:49:01.273Z,101143.33
2019-03-27T16:51:33.833Z,101148.75
2019-03-27T16:54:06.423Z,101149.34
2019-03-27T16:56:38.853Z,101152.13
2019-03-27T16:59:11.403Z,101151.91
2019-03-27T17:01:44.061Z,101151.66
2019-03-27T17:04:16.547Z,101150.92
2019-03-27T17:06:49.223Z,101147.97
2019-03-27T17:09:22.124Z,101145.87
2019-03-27T17:11:54.861Z,101151.17
2019-03-27T17:14:28.522Z,101154.75
2019-03-27T17:17:01.305Z,101158.80
2019-03-27T17:19:33.974Z,101161.11
2019-03-27T17:22:18.888Z,101163.88
2019-03-27T17:27:47.320Z,101151.98
2019-03-27T17:30:19.583Z,101162.15
2019-03-27T17:32:52.942Z,101165.70
2019-03-27T17:35:25.790Z,101163.64
2019-03-27T17:37:59.492Z,101163.73
2019-03-27T17:40:32.913Z,101167.26
2019-03-27T17:43:05.685Z,101172.13
2019-03-27T17:45:38.853Z,101170.00
2019-03-27T17:48:11.741Z,101163.98
2019-03-27T17:50:44.163Z,101167.47
2019-03-27T17:53:30.773Z,101170.08
2019-03-27T17:55:57.345Z,101170.49
2019-03-27T17:58:33.751Z,101170.08
2019-03-27T18:01:06.603Z,101165.36
2019-03-27T18:03:39.334Z,101168.88
2019-03-27T18:06:12.010Z,101172.38
2019-03-27T18:08:44.952Z,101172.86
2019-03-27T18:11:17.892Z,101175.09
2019-03-27T18:13:50.754Z,101171.66
2019-03-27T18:16:23.631Z,101165.16
2019-03-27T18:18:56.643Z,101173.42
2019-03-27T18:21:29.513Z,101174.34
2019-03-27T18:24:02.364Z,101174.39
2019-03-27T18:26:34.993Z,101176.53
2019-03-27T18:29:07.793Z,101170.48
2019-03-27T18:31:40.703Z,101175.27
2019-03-27T18:34:13.235Z,101172.21
2019-03-27T18:36:46.125Z,101167.43
2019-03-27T18:39:18.910Z,101170.88
2019-03-27T18:41:51.484Z,101174.77
2019-03-27T18:44:24.263Z,101171.25
2019-03-27T18:46:56.953Z,101172.95
2019-03-27T18:49:29.814Z,101178.58
2019-03-27T18:52:02.543Z,101176.39
2019-03-27T18:54:35.273Z,101181.12
2019-03-27T18:57:08.183Z,101178.11
2019-03-27T18:59:42.133Z,101180.70
2019-03-27T19:02:15.198Z,101175.47
2019-03-27T19:04:48.582Z,101172.85
2019-03-27T19:07:21.460Z,101177.17
2019-03-27T19:09:54.383Z,101180.61
2019-03-27T19:12:27.412Z,101172.80
2019-03-27T19:15:00.500Z,101168.00
2019-03-27T19:17:33.431Z,101170.19
2019-03-27T19:20:06.433Z,101171.91
2019-03-27T19:22:39.203Z,101174.93
2019-03-27T19:25:12.770Z,101171.44
2019-03-27T19:27:46.034Z,101180.13
2019-03-27T19:30:19.723Z,101176.22
2019-03-27T19:32:52.534Z,101178.83
2019-03-27T19:35:25.785Z,101182.27
2019-03-27T19:37:59.307Z,101175.76
2019-03-27T19:40:32.111Z,101186.16
2019-03-27T19:43:05.123Z,101182.25
2019-03-27T19:45:37.831Z,101181.38
2019-03-27T19:48:10.833Z,101182.69
2019-03-27T19:50:45.433Z,101187.89
2019-03-27T19:53:18.733Z,101190.53
2019-03-27T19:55:51.386Z,101194.02
2019-03-27T19:58:24.422Z,101184.91
2019-03-27T20:03:29.937Z,101184.92
2019-03-27T20:06:02.723Z,101189.30
2019-03-27T20:08:35.883Z,101194.54
2019-03-27T20:11:09.237Z,101195.42
2019-03-27T20:13:42.137Z,101195.44
2019-03-27T20:16:14.890Z,101193.71
2019-03-27T20:18:47.613Z,101195.02
2019-03-27T20:21:20.575Z,101190.70
2019-03-27T20:23:53.472Z,101193.77
2019-03-27T20:26:26.173Z,101194.64
2019-03-27T20:28:58.893Z,101195.53
2019-03-27T20:31:31.722Z,101192.96
2019-03-27T20:34:05.359Z,101197.75
2019-03-27T20:36:38.653Z,101192.58
2019-03-27T20:39:12.192Z,101193.88
2019-03-27T20:41:46.732Z,101189.14
2019-03-27T20:44:21.273Z,101194.77
2019-03-27T20:46:55.173Z,101190.90
2019-03-27T20:49:28.833Z,101191.31
2019-03-27T20:52:02.213Z,101200.42
2019-03-27T20:54:34.843Z,101194.80
2019-03-27T20:57:07.515Z,101194.80
2019-03-27T20:59:40.156Z,101196.55
2019-03-27T21:02:13.784Z,101202.17
2019-03-27T21:04:46.443Z,101199.99
2019-03-27T21:07:19.023Z,101196.09
2019-03-27T21:09:53.281Z,101197.36
2019-03-27T21:12:26.287Z,101201.69
2019-03-27T21:14:58.842Z,101199.54
2019-03-27T21:17:31.303Z,101198.23
2019-03-27T21:20:04.411Z,101201.69
2019-03-27T21:22:37.455Z,101196.94
2019-03-27T21:25:10.670Z,101199.08
2019-03-27T21:27:43.317Z,101200.80
2019-03-27T21:30:17.014Z,101201.69
2019-03-27T21:32:49.751Z,101200.80
2019-03-27T21:35:23.514Z,101210.75
2019-03-27T21:37:56.293Z,101206.39
2019-03-27T21:40:28.966Z,101203.78
2019-03-27T21:43:02.031Z,101205.09
2019-03-27T21:45:34.712Z,101202.45
2019-03-27T21:48:07.350Z,101202.86
2019-03-27T21:50:40.626Z,101205.00
2019-03-27T21:53:13.445Z,101199.34
2019-03-27T21:55:46.076Z,101197.61
2019-03-27T21:58:18.782Z,101201.05
2019-03-27T22:00:51.802Z,101200.17
2019-03-27T22:03:24.762Z,101197.56
2019-03-27T22:05:57.372Z,101203.65
2019-03-27T22:08:29.913Z,101200.63
2019-03-27T22:11:02.483Z,101203.23
2019-03-27T22:13:35.112Z,101199.75
2019-03-27T22:16:07.806Z,101195.42
2019-03-27T22:18:40.482Z,101194.13
2019-03-27T22:21:13.222Z,101193.25
2019-03-27T22:23:45.905Z,101198.88
2019-03-27T22:26:18.782Z,101193.67
2019-03-27T22:28:51.582Z,101197.58
2019-03-27T22:31:24.253Z,101196.73
2019-03-27T22:33:57.534Z,101197.16
2019-03-27T22:36:30.442Z,101197.57
2019-03-27T22:39:03.090Z,101200.63
2019-03-27T22:41:36.470Z,101204.53
2019-03-27T22:44:09.094Z,101200.17
2019-03-27T22:46:41.832Z,101197.58
2019-03-27T22:49:14.473Z,101201.93
2019-03-27T22:51:47.073Z,101200.17
2019-03-27T22:54:20.014Z,101195.84
2019-03-27T22:56:52.862Z,101194.96
2019-03-27T22:59:28.204Z,101193.66
2019-03-27T23:02:00.792Z,101193.20
2019-03-27T23:04:33.271Z,101197.52
2019-03-27T23:07:06.083Z,101197.92
2019-03-27T23:09:38.593Z,101191.83
2019-03-27T23:12:11.072Z,101185.70
2019-03-27T23:14:44.101Z,101195.21
2019-03-27T23:17:16.763Z,101186.52
2019-03-27T23:19:51.315Z,101183.45
2019-03-27T23:22:23.703Z,101186.46
2019-03-27T23:24:56.272Z,101189.93
2019-03-27T23:27:28.975Z,101189.04
2019-03-27T23:30:01.965Z,101179.47
2019-03-27T23:32:34.862Z,101175.98
2019-03-27T23:35:08.374Z,101175.09
2019-03-27T23:37:40.982Z,101170.75
2019-03-27T23:40:13.821Z,101164.23
2019-03-27T23:42:46.823Z,101163.34
2019-03-27T23:45:19.393Z,101162.90
2019-03-27T23:47:52.192Z,101158.53
2019-03-27T23:50:24.737Z,101155.04
2019-03-27T23:52:57.233Z,101152.02
2019-03-27T23:55:29.828Z,101150.69
2019-03-27T23:58:02.950Z,101158.02
